createdAt,value
2022-09-24T00:01:38.772Z,97479.06
2022-09-24T00:04:12.274Z,97480.00
2022-09-24T00:06:46.226Z,97480.25
2022-09-24T00:09:16.417Z,97481.19
2022-09-24T00:11:45.252Z,97477.53
2022-09-24T00:14:12.849Z,97477.78
2022-09-24T00:16:40.974Z,97477.16
2022-09-24T00:19:07.972Z,97469.38
2022-09-24T00:21:37.418Z,97471.84
2022-09-24T00:24:36.654Z,97467.47
2022-09-24T00:27:05.636Z,97464.81
2022-09-24T00:29:34.266Z,97464.81
2022-09-24T00:32:02.438Z,97460.44
2022-09-24T00:34:30.250Z,97462.78
2022-09-24T00:36:57.189Z,97460.44
2022-09-24T00:39:24.042Z,97462.09
2022-09-24T00:41:50.778Z,97460.19
2022-09-24T00:44:45.185Z,97460.19
2022-09-24T00:47:27.067Z,97457.59
2022-09-24T00:50:13.140Z,97458.44
2022-09-24T00:52:47.114Z,97456.53
2022-09-24T00:55:15.785Z,97461.59
2022-09-24T00:57:44.776Z,97454.06
2022-09-24T01:00:12.475Z,97456.91
2022-09-24T01:02:44.497Z,97445.09
2022-09-24T01:05:11.241Z,97447.66
2022-09-24T01:07:38.028Z,97451.91
2022-09-24T01:10:05.918Z,97448.63
2022-09-24T01:12:57.683Z,97443.53
2022-09-24T01:15:42.849Z,97435.88
2022-09-24T01:18:21.944Z,97441.78
2022-09-24T01:21:14.831Z,97438.34
2022-09-24T01:24:03.125Z,97432.47
2022-09-24T01:26:44.458Z,97431.66
2022-09-24T01:29:49.970Z,97430.22
2022-09-24T01:32:40.999Z,97426.00
2022-09-24T01:35:16.564Z,97421.00
2022-09-24T01:37:52.176Z,97415.69
2022-09-24T01:40:23.054Z,97410.44
2022-09-24T01:42:52.091Z,97411.69
2022-09-24T01:45:20.126Z,97410.16
2022-09-24T01:47:47.807Z,97409.34
2022-09-24T01:50:19.281Z,97398.38
2022-09-24T01:53:01.234Z,97397.56
2022-09-24T01:55:35.768Z,97389.66
2022-09-24T01:58:10.567Z,97382.94
2022-09-24T02:00:44.373Z,97375.16
2022-09-24T02:03:21.143Z,97373.50
2022-09-24T02:06:14.647Z,97357.09
2022-09-24T02:08:48.468Z,97354.88
2022-09-24T02:11:23.197Z,97359.22
2022-09-24T02:14:04.163Z,97351.34
2022-09-24T02:16:38.836Z,97358.78
2022-09-24T02:19:13.118Z,97357.00
2022-09-24T02:21:42.036Z,97357.84
2022-09-24T02:24:18.420Z,97344.06
2022-09-24T02:26:45.919Z,97341.34
2022-09-24T02:29:13.527Z,97340.38
2022-09-24T02:31:48.520Z,97347.69
2022-09-24T02:34:22.251Z,97342.97
2022-09-24T02:37:05.797Z,97340.63
2022-09-24T02:39:32.612Z,97348.41
2022-09-24T02:42:00.817Z,97349.09
2022-09-24T02:44:27.631Z,97347.44
2022-09-24T02:46:54.408Z,97344.38
2022-09-24T02:49:21.162Z,97348.72
2022-09-24T02:51:47.946Z,97343.53
2022-09-24T02:54:14.693Z,97332.47
2022-09-24T02:56:41.661Z,97327.16
2022-09-24T02:59:08.882Z,97334.94
2022-09-24T03:01:36.346Z,97334.25
2022-09-24T03:04:03.486Z,97327.16
2022-09-24T03:06:30.424Z,97333.06
2022-09-24T03:08:57.577Z,97340.00
2022-09-24T03:11:24.590Z,97328.81
2022-09-24T03:13:51.925Z,97326.09
2022-09-24T03:16:18.958Z,97329.63
2022-09-24T03:18:47.829Z,97337.66
2022-09-24T03:21:19.965Z,97342.97
2022-09-24T03:23:47.235Z,97332.59
2022-09-24T03:26:14.901Z,97328.22
2022-09-24T03:28:41.936Z,97332.34
2022-09-24T03:31:09.385Z,97333.78
2022-09-24T03:33:43.075Z,97333.19
2022-09-24T03:36:22.435Z,97330.56
2022-09-24T03:38:53.208Z,97323.63
2022-09-24T03:41:19.919Z,97325.41
2022-09-24T03:43:46.781Z,97334.00
2022-09-24T03:46:15.961Z,97327.16
2022-09-24T03:48:43.329Z,97334.00
2022-09-24T03:51:19.834Z,97331.19
2022-09-24T03:53:48.277Z,97325.06
2022-09-24T03:56:15.885Z,97321.53
2022-09-24T03:58:47.228Z,97324.94
2022-09-24T04:01:20.434Z,97312.81
2022-09-24T04:03:48.701Z,97319.63
2022-09-24T04:06:15.558Z,97316.22
2022-09-24T04:08:42.403Z,97321.28
2022-09-24T04:11:09.139Z,97315.97
2022-09-24T04:13:35.874Z,97316.69
2022-09-24T04:16:03.886Z,97313.97
2022-09-24T04:18:32.858Z,97321.63
2022-09-24T04:21:02.745Z,97320.72
2022-09-24T04:23:31.273Z,97318.00
2022-09-24T04:26:02.102Z,97326.59
2022-09-24T04:28:32.163Z,97318.13
2022-09-24T04:30:59.402Z,97320.78
2022-09-24T04:33:26.573Z,97322.47
2022-09-24T04:35:53.313Z,97322.47
2022-09-24T04:38:21.097Z,97321.03
2022-09-24T04:40:48.670Z,97318.69
2022-09-24T04:43:15.643Z,97313.13
2022-09-24T04:45:45.696Z,97308.91
2022-09-24T04:48:13.702Z,97311.59
2022-09-24T04:50:45.502Z,97310.91
2022-09-24T04:53:14.104Z,97315.38
2022-09-24T04:55:41.544Z,97305.25
2022-09-24T04:58:09.264Z,97303.63
2022-09-24T05:00:36.082Z,97321.25
2022-09-24T05:03:04.045Z,97319.84
2022-09-24T05:05:33.142Z,97314.91
2022-09-24T05:08:01.285Z,97321.97
2022-09-24T05:10:31.409Z,97314.28
2022-09-24T05:12:58.650Z,97324.66
2022-09-24T05:15:25.416Z,97311.81
2022-09-24T05:17:52.127Z,97316.19
2022-09-24T05:20:18.938Z,97313.72
2022-09-24T05:22:49.343Z,97314.75
2022-09-24T05:25:19.021Z,97314.88
2022-09-24T05:27:53.426Z,97309.94
2022-09-24T05:30:24.402Z,97302.16
2022-09-24T05:32:54.333Z,97304.13
2022-09-24T05:35:23.447Z,97300.84
2022-09-24T05:37:53.075Z,97302.38
2022-09-24T05:40:38.261Z,97310.78
2022-09-24T05:43:05.131Z,97307.81
2022-09-24T05:45:32.542Z,97316.06
2022-09-24T05:47:59.980Z,97316.56
2022-09-24T05:50:26.838Z,97317.97
2022-09-24T05:52:53.526Z,97316.78
2022-09-24T05:55:21.335Z,97319.16
2022-09-24T05:57:48.921Z,97309.13
2022-09-24T06:00:15.796Z,97311.16
2022-09-24T06:02:42.538Z,97313.38
2022-09-24T06:05:10.291Z,97315.41
2022-09-24T06:07:37.195Z,97308.91
2022-09-24T06:10:07.230Z,97314.34
2022-09-24T06:12:36.994Z,97315.63
2022-09-24T06:15:04.208Z,97308.06
2022-09-24T06:17:32.209Z,97323.16
2022-09-24T06:19:58.920Z,97321.72
2022-09-24T06:22:28.600Z,97315.09
2022-09-24T06:24:55.831Z,97318.19
2022-09-24T06:27:22.559Z,97324.50
2022-09-24T06:29:49.254Z,97317.53
2022-09-24T06:32:15.943Z,97323.38
2022-09-24T06:34:42.632Z,97324.09
2022-09-24T06:37:09.335Z,97324.88
2022-09-24T06:39:36.027Z,97330.47
2022-09-24T06:42:02.732Z,97332.66
2022-09-24T06:44:29.493Z,97333.03
2022-09-24T06:46:57.034Z,97333.41
2022-09-24T06:49:23.897Z,97332.00
2022-09-24T06:51:50.953Z,97339.22
2022-09-24T06:54:17.648Z,97337.38
2022-09-24T06:56:44.366Z,97331.31
2022-09-24T06:59:11.233Z,97333.03
2022-09-24T07:01:38.170Z,97336.22
2022-09-24T07:04:05.098Z,97331.47
2022-09-24T07:06:54.310Z,97333.00
2022-09-24T07:09:21.944Z,97330.94
2022-09-24T07:11:48.645Z,97334.47
2022-09-24T07:14:15.418Z,97335.00
2022-09-24T07:16:42.102Z,97332.34
2022-09-24T07:19:08.801Z,97329.94
2022-09-24T07:21:35.573Z,97327.44
2022-09-24T07:24:02.618Z,97326.19
2022-09-24T07:26:29.871Z,97318.47
2022-09-24T07:28:56.597Z,97329.53
2022-09-24T07:31:24.315Z,97324.53
2022-09-24T07:33:51.708Z,97339.88
2022-09-24T07:36:18.850Z,97332.00
2022-09-24T07:38:46.432Z,97329.69
2022-09-24T07:41:13.138Z,97333.28
2022-09-24T07:43:39.900Z,97332.19
2022-09-24T07:46:07.173Z,97322.75
2022-09-24T07:48:34.013Z,97333.66
2022-09-24T07:51:00.717Z,97335.16
2022-09-24T07:53:27.449Z,97334.97
2022-09-24T07:55:59.599Z,97335.91
2022-09-24T07:58:26.324Z,97343.66
2022-09-24T08:00:53.094Z,97341.19
2022-09-24T08:03:20.215Z,97341.50
2022-09-24T08:05:47.002Z,97327.63
2022-09-24T08:08:14.709Z,97335.31
2022-09-24T08:10:42.445Z,97325.94
2022-09-24T08:13:09.152Z,97340.44
2022-09-24T08:15:35.984Z,97335.59
2022-09-24T08:18:03.702Z,97336.19
2022-09-24T08:20:33.066Z,97335.53
2022-09-24T08:23:05.150Z,97334.09
2022-09-24T08:25:32.225Z,97334.09
2022-09-24T08:28:07.377Z,97339.50
2022-09-24T08:30:35.601Z,97344.94
2022-09-24T08:33:04.757Z,97342.31
2022-09-24T08:35:32.437Z,97330.00
2022-09-24T08:38:01.182Z,97339.34
2022-09-24T08:40:33.242Z,97335.25
2022-09-24T08:43:55.786Z,97329.50
2022-09-24T08:47:11.791Z,97335.25
2022-09-24T08:49:49.004Z,97339.69
2022-09-24T08:52:33.652Z,97335.59
2022-09-24T08:55:40.130Z,97330.16
2022-09-24T08:58:35.013Z,97331.13
2022-09-24T09:01:12.330Z,97337.06
2022-09-24T09:04:16.784Z,97333.44
2022-09-24T09:07:14.793Z,97335.25
2022-09-24T09:10:09.551Z,97335.25
2022-09-24T09:12:42.599Z,97346.91
2022-09-24T09:15:22.650Z,97346.56
2022-09-24T09:18:17.535Z,97350.34
2022-09-24T09:20:47.712Z,97342.31
2022-09-24T09:23:26.153Z,97348.53
2022-09-24T09:25:57.464Z,97339.66
2022-09-24T09:28:27.524Z,97349.19
2022-09-24T09:30:58.903Z,97339.84
2022-09-24T09:34:09.629Z,97352.16
2022-09-24T09:37:04.577Z,97346.91
2022-09-24T09:40:10.266Z,97343.75
2022-09-24T09:42:40.293Z,97350.31
2022-09-24T09:45:32.327Z,97354.38
2022-09-24T09:48:01.590Z,97364.22
2022-09-24T09:50:39.381Z,97353.06
2022-09-24T09:53:06.215Z,97354.22
2022-09-24T09:55:37.504Z,97356.31
2022-09-24T09:58:18.375Z,97351.63
2022-09-24T10:00:49.606Z,97352.53
2022-09-24T10:03:46.148Z,97351.97
2022-09-24T10:06:24.162Z,97348.81
2022-09-24T10:08:50.902Z,97354.34
2022-09-24T10:11:18.941Z,97342.75
2022-09-24T10:13:45.952Z,97346.66
2022-09-24T10:16:15.991Z,97347.06
2022-09-24T10:18:49.991Z,97336.28
2022-09-24T10:21:36.639Z,97328.31
2022-09-24T10:24:12.032Z,97329.16
2022-09-24T10:26:45.060Z,97330.22
2022-09-24T10:29:54.102Z,97333.50
2022-09-24T10:32:25.534Z,97333.56
2022-09-24T10:35:19.383Z,97327.50
2022-09-24T10:37:58.969Z,97329.19
2022-09-24T10:40:39.392Z,97330.72
2022-09-24T10:43:07.449Z,97335.81
2022-09-24T10:46:14.889Z,97329.91
2022-09-24T10:49:15.342Z,97326.75
2022-09-24T10:52:07.830Z,97329.31
2022-09-24T10:55:00.279Z,97325.22
2022-09-24T10:58:02.798Z,97328.66
2022-09-24T11:01:08.329Z,97321.59
2022-09-24T11:04:12.796Z,97332.38
2022-09-24T11:07:33.389Z,97331.72
2022-09-24T11:10:15.787Z,97329.09
2022-09-24T11:12:45.299Z,97339.09
2022-09-24T11:15:39.586Z,97340.59
2022-09-24T11:18:37.520Z,97326.09
2022-09-24T11:21:57.665Z,97325.97
2022-09-24T11:24:33.501Z,97319.97
2022-09-24T11:27:45.011Z,97320.59
2022-09-24T11:31:03.865Z,97328.28
2022-09-24T11:34:00.335Z,97323.75
2022-09-24T11:37:04.714Z,97326.88
2022-09-24T11:40:03.580Z,97324.50
2022-09-24T11:43:06.719Z,97319.59
2022-09-24T11:46:24.122Z,97327.28
2022-09-24T11:49:53.035Z,97318.56
2022-09-24T11:52:39.967Z,97323.81
2022-09-24T11:55:21.670Z,97317.09
2022-09-24T11:58:04.508Z,97318.63
2022-09-24T12:00:42.582Z,97316.97
2022-09-24T12:03:34.869Z,97307.16
2022-09-24T12:06:09.270Z,97302.44
2022-09-24T12:09:09.272Z,97313.47
2022-09-24T12:11:48.464Z,97306.56
2022-09-24T12:14:43.150Z,97306.28
2022-09-24T12:17:47.433Z,97305.06
2022-09-24T12:20:28.208Z,97305.41
2022-09-24T12:23:10.963Z,97301.78
2022-09-24T12:25:45.788Z,97294.88
2022-09-24T12:28:38.648Z,97301.38
2022-09-24T12:31:53.976Z,97301.88
2022-09-24T12:34:32.458Z,97304.81
2022-09-24T12:37:11.844Z,97306.22
2022-09-24T12:39:53.710Z,97301.97
2022-09-24T12:42:22.822Z,97305.66
2022-09-24T12:44:57.983Z,97292.25
2022-09-24T12:47:33.235Z,97293.50
2022-09-24T12:50:08.347Z,97292.63
2022-09-24T12:52:43.317Z,97294.13
2022-09-24T12:55:23.249Z,97292.22
2022-09-24T12:58:06.521Z,97291.69
2022-09-24T13:00:47.982Z,97295.06
2022-09-24T13:03:44.598Z,97297.06
2022-09-24T13:06:37.943Z,97285.38
2022-09-24T13:09:39.013Z,97276.84
2022-09-24T13:12:18.022Z,97277.06
2022-09-24T13:15:04.162Z,97277.25
2022-09-24T13:17:35.123Z,97275.53
2022-09-24T13:20:16.893Z,97276.06
2022-09-24T13:22:43.678Z,97277.44
2022-09-24T13:25:10.647Z,97265.25
2022-09-24T13:27:41.654Z,97260.88
2022-09-24T13:30:39.971Z,97267.91
2022-09-24T13:33:21.169Z,97269.16
2022-09-24T13:36:03.484Z,97259.19
2022-09-24T13:39:03.688Z,97267.72
2022-09-24T13:42:08.675Z,97270.69
2022-09-24T13:44:42.836Z,97269.16
2022-09-24T13:47:19.656Z,97264.53
2022-09-24T13:49:50.137Z,97258.22
2022-09-24T13:52:33.702Z,97257.75
2022-09-24T13:55:15.099Z,97261.84
2022-09-24T13:57:46.994Z,97253.44
2022-09-24T14:00:27.489Z,97254.63
2022-09-24T14:03:19.088Z,97259.59
2022-09-24T14:05:45.873Z,97260.88
2022-09-24T14:08:16.279Z,97252.25
2022-09-24T14:10:45.521Z,97253.00
2022-09-24T14:13:22.536Z,97255.72
2022-09-24T14:16:07.463Z,96702.69
2022-09-24T14:18:34.783Z,97250.47
2022-09-24T14:21:13.234Z,97244.50
2022-09-24T14:23:48.429Z,97246.78
2022-09-24T14:26:30.817Z,97236.41
2022-09-24T14:29:05.721Z,97238.53
2022-09-24T14:31:32.660Z,97235.88
2022-09-24T14:34:05.027Z,97230.09
2022-09-24T14:36:36.023Z,97226.56
2022-09-24T14:39:05.871Z,97234.88
2022-09-24T14:41:36.136Z,97229.22
2022-09-24T14:44:27.973Z,96871.13
2022-09-24T14:46:59.086Z,97230.34
2022-09-24T14:49:44.755Z,97234.75
2022-09-24T14:52:36.310Z,97234.06
2022-09-24T14:55:21.947Z,97229.50
2022-09-24T14:57:55.258Z,97233.91
2022-09-24T15:00:30.447Z,97224.09
2022-09-24T15:03:16.807Z,97219.19
2022-09-24T15:05:45.952Z,97219.91
2022-09-24T15:08:28.707Z,97217.00
2022-09-24T15:11:03.547Z,97214.22
2022-09-24T15:13:35.243Z,97220.03
2022-09-24T15:16:26.321Z,97219.28
2022-09-24T15:19:07.426Z,97220.72
2022-09-24T15:21:34.762Z,97223.63
2022-09-24T15:24:02.048Z,97215.13
2022-09-24T15:26:35.527Z,97215.56
2022-09-24T15:29:03.449Z,97227.13
2022-09-24T15:31:31.142Z,97228.03
2022-09-24T15:33:57.856Z,97230.88
2022-09-24T15:36:25.011Z,97227.44
2022-09-24T15:38:57.288Z,97230.28
2022-09-24T15:41:24.078Z,97236.25
2022-09-24T15:43:51.159Z,97237.91
2022-09-24T15:46:17.890Z,97230.09
2022-09-24T15:48:44.621Z,97238.00
2022-09-24T15:51:15.361Z,97232.47
2022-09-24T15:53:42.405Z,97232.94
2022-09-24T15:56:09.134Z,97234.28
2022-09-24T15:58:35.988Z,97227.94
2022-09-24T16:01:03.482Z,97233.50
2022-09-24T16:03:32.485Z,97236.47
2022-09-24T16:06:00.438Z,97229.28
2022-09-24T16:08:27.476Z,97236.84
2022-09-24T16:10:54.556Z,97233.91
2022-09-24T16:13:24.337Z,97227.53
2022-09-24T16:15:51.191Z,97224.91
2022-09-24T16:18:18.023Z,97235.41
2022-09-24T16:20:46.201Z,97229.22
2022-09-24T16:23:15.694Z,97245.63
2022-09-24T16:25:57.555Z,97239.59
2022-09-24T16:28:25.427Z,97245.47
2022-09-24T16:30:52.961Z,97241.06
2022-09-24T16:33:20.128Z,97246.16
2022-09-24T16:35:46.873Z,97245.19
2022-09-24T16:38:15.626Z,97256.50
2022-09-24T16:40:45.737Z,97262.06
2022-09-24T16:43:12.504Z,97267.81
2022-09-24T16:45:39.201Z,97265.66
2022-09-24T16:48:05.901Z,97263.53
2022-09-24T16:50:32.881Z,97270.09
2022-09-24T16:52:59.716Z,97273.97
2022-09-24T16:55:26.467Z,97274.31
2022-09-24T16:57:53.217Z,97272.84
2022-09-24T17:00:20.360Z,97264.47
2022-09-24T17:02:47.159Z,97263.81
2022-09-24T17:05:13.946Z,97267.41
2022-09-24T17:07:40.670Z,97277.22
2022-09-24T17:10:13.280Z,97271.97
2022-09-24T17:12:48.032Z,97268.88
2022-09-24T17:15:19.196Z,97271.00
2022-09-24T17:17:50.165Z,97270.47
2022-09-24T17:20:19.130Z,97273.25
2022-09-24T17:22:47.974Z,97270.31
2022-09-24T17:25:15.131Z,97274.25
2022-09-24T17:27:41.850Z,97272.91
2022-09-24T17:30:10.833Z,97276.34
2022-09-24T17:32:37.542Z,97279.09
2022-09-24T17:35:05.214Z,97279.56
2022-09-24T17:37:32.374Z,97287.06
2022-09-24T17:39:59.230Z,97283.63
2022-09-24T17:42:26.027Z,97290.81
2022-09-24T17:44:52.966Z,97291.81
2022-09-24T17:47:19.654Z,97294.59
2022-09-24T17:49:46.368Z,97305.41
2022-09-24T17:52:13.308Z,97300.44
2022-09-24T17:54:40.011Z,97315.66
2022-09-24T17:57:06.713Z,97309.09
2022-09-24T17:59:33.414Z,97309.53
2022-09-24T18:02:00.159Z,97322.16
2022-09-24T18:04:30.236Z,97317.22
2022-09-24T18:06:56.954Z,97319.19
2022-09-24T18:09:23.694Z,97319.63
2022-09-24T18:11:52.611Z,97322.41
2022-09-24T18:14:22.808Z,97318.25
2022-09-24T18:16:50.765Z,97320.88
2022-09-24T18:19:18.154Z,97328.91
2022-09-24T18:21:46.338Z,97330.03
2022-09-24T18:24:14.293Z,97323.97
2022-09-24T18:26:44.109Z,97332.00
2022-09-24T18:29:16.580Z,97333.94
2022-09-24T18:31:44.554Z,97330.63
2022-09-24T18:34:15.893Z,97330.78
2022-09-24T18:36:44.308Z,97332.75
2022-09-24T18:39:16.670Z,97339.13
2022-09-24T18:41:45.656Z,97340.53
2022-09-24T18:44:12.747Z,97336.44
2022-09-24T18:46:39.971Z,97323.50
2022-09-24T18:49:06.887Z,97344.59
2022-09-24T18:51:38.434Z,97344.75
2022-09-24T18:54:11.842Z,97341.09
2022-09-24T18:56:38.924Z,97338.78
2022-09-24T18:59:11.965Z,97347.25
2022-09-24T19:01:40.549Z,97337.88
2022-09-24T19:04:11.919Z,97342.28
2022-09-24T19:06:44.755Z,97340.66
2022-09-24T19:09:17.043Z,97339.16
2022-09-24T19:11:45.363Z,97334.41
2022-09-24T19:14:14.760Z,97334.56
2022-09-24T19:16:41.485Z,97337.59
2022-09-24T19:19:09.088Z,97334.97
2022-09-24T19:21:35.828Z,97334.16
2022-09-24T19:24:05.352Z,97335.28
2022-09-24T19:26:35.405Z,97327.59
2022-09-24T19:29:05.009Z,97318.25
2022-09-24T19:31:38.696Z,97320.22
2022-09-24T19:34:08.790Z,97319.50
2022-09-24T19:36:42.909Z,97315.56
2022-09-24T19:39:13.932Z,97315.25
2022-09-24T19:41:40.916Z,97322.81
2022-09-24T19:44:09.440Z,97316.63
2022-09-24T19:46:38.163Z,97325.44
2022-09-24T19:49:05.978Z,97324.06
2022-09-24T19:51:35.092Z,97327.66
2022-09-24T19:54:11.427Z,97327.16
2022-09-24T19:56:38.355Z,97323.03
2022-09-24T19:59:05.941Z,97325.00
2022-09-24T20:01:34.231Z,97322.66
2022-09-24T20:04:06.081Z,97323.63
2022-09-24T20:06:35.232Z,97322.97
2022-09-24T20:09:03.391Z,97326.53
2022-09-24T20:11:32.320Z,97322.97
2022-09-24T20:14:00.134Z,97325.56
2022-09-24T20:16:28.087Z,97322.13
2022-09-24T20:18:57.625Z,97320.66
2022-09-24T20:21:34.245Z,97310.50
2022-09-24T20:24:03.347Z,97312.13
2022-09-24T20:26:48.695Z,97323.56
2022-09-24T20:29:16.066Z,97312.44
2022-09-24T20:31:52.474Z,97303.75
2022-09-24T20:34:28.465Z,97312.44
2022-09-24T20:36:57.554Z,97316.00
2022-09-24T20:39:24.257Z,97313.69
2022-09-24T20:41:50.951Z,97317.88
2022-09-24T20:44:18.036Z,97313.19
2022-09-24T20:46:44.933Z,97319.41
2022-09-24T20:49:24.246Z,97317.75
2022-09-24T20:51:56.989Z,97317.75
2022-09-24T20:54:28.482Z,97316.13
2022-09-24T20:56:55.824Z,97313.50
2022-09-24T20:59:22.834Z,97320.38
2022-09-24T21:01:49.836Z,97319.41
2022-09-24T21:04:17.557Z,97310.72
2022-09-24T21:06:46.583Z,97314.16
2022-09-24T21:09:14.405Z,97316.78
2022-09-24T21:11:41.954Z,97324.94
2022-09-24T21:14:11.271Z,97323.84
2022-09-24T21:16:38.265Z,97324.97
2022-09-24T21:19:07.786Z,97329.97
2022-09-24T21:21:38.199Z,97326.28
2022-09-24T21:24:10.082Z,97341.31
2022-09-24T21:26:39.304Z,97336.59
2022-09-24T21:29:18.617Z,97340.59
2022-09-24T21:31:47.572Z,97335.88
2022-09-24T21:34:20.513Z,97334.91
2022-09-24T21:36:47.261Z,97347.00
2022-09-24T21:39:19.744Z,97346.19
2022-09-24T21:41:51.251Z,97339.16
2022-09-24T21:44:19.142Z,97335.44
2022-09-24T21:46:47.167Z,97345.22
2022-09-24T21:49:14.230Z,97350.59
2022-09-24T21:51:41.765Z,97346.50
2022-09-24T21:54:18.241Z,97341.25
2022-09-24T21:56:46.413Z,97344.69
2022-09-24T21:59:32.155Z,61792.09
2022-09-24T22:01:59.294Z,61792.09
2022-09-24T22:04:27.568Z,61792.09
2022-09-24T22:06:54.342Z,61792.09
2022-09-24T22:09:21.418Z,61792.09
2022-09-24T22:11:48.219Z,61792.09
2022-09-24T22:14:15.007Z,61792.09
2022-09-24T22:16:41.773Z,61792.09
2022-09-24T22:19:09.284Z,61792.09
2022-09-24T22:21:36.543Z,61792.09
2022-09-24T22:24:04.548Z,61792.09
2022-09-24T22:26:31.529Z,61792.09
2022-09-24T22:28:59.066Z,61792.09
2022-09-24T22:31:26.649Z,61792.09
2022-09-24T22:34:12.092Z,61792.09
2022-09-24T22:36:38.902Z,61792.09
2022-09-24T22:39:07.174Z,61792.09
2022-09-24T22:41:39.661Z,61792.09
2022-09-24T22:44:07.085Z,61792.09
2022-09-24T22:46:36.064Z,61792.09
2022-09-24T22:49:05.500Z,61792.09
2022-09-24T22:51:33.541Z,61792.09
2022-09-24T22:54:00.382Z,61792.09
2022-09-24T22:56:28.490Z,61792.09
2022-09-24T22:58:59.012Z,61792.09
2022-09-24T23:01:31.297Z,61792.09
2022-09-24T23:03:59.391Z,61792.09
2022-09-24T23:06:27.314Z,61792.09
2022-09-24T23:08:55.849Z,61792.09
2022-09-24T23:11:31.514Z,61792.09
2022-09-24T23:14:20.009Z,61792.09
2022-09-24T23:16:46.761Z,61792.09
2022-09-24T23:19:18.281Z,61792.09
2022-09-24T23:21:45.804Z,61792.09
2022-09-24T23:24:19.845Z,61792.09
2022-09-24T23:26:47.223Z,61792.09
2022-09-24T23:29:14.972Z,61792.09
2022-09-24T23:31:41.761Z,61792.09
2022-09-24T23:34:10.611Z,61792.09
2022-09-24T23:36:37.670Z,61792.09
2022-09-24T23:39:05.397Z,61792.09
2022-09-24T23:41:32.235Z,61792.09
2022-09-24T23:44:00.221Z,61792.09
2022-09-24T23:46:27.360Z,61792.09
2022-09-24T23:48:55.358Z,61792.09
2022-09-24T23:51:22.608Z,61792.09
2022-09-24T23:53:49.384Z,61792.09
2022-09-24T23:56:16.329Z,61792.09
2022-09-24T23:58:43.033Z,61792.09
